sensor_id;sensor_type;location;lat;lon;timestamp;pressure;altitude;pressure_sealevel;temperature;humidity
3664;BME280;1848;51.042;7.066;2022-07-29T00:01:43;100244.88;;;19.33;53.65
3664;BME280;1848;51.042;7.066;2022-07-29T00:04:10;100226.75;;;19.17;53.90
3664;BME280;1848;51.042;7.066;2022-07-29T00:06:37;100232.00;;;19.24;55.83
3664;BME280;1848;51.042;7.066;2022-07-29T00:09:03;100229.53;;;19.22;54.10
3664;BME280;1848;51.042;7.066;2022-07-29T00:11:30;100231.38;;;19.17;57.10
3664;BME280;1848;51.042;7.066;2022-07-29T00:13:57;100229.31;;;19.07;55.16
3664;BME280;1848;51.042;7.066;2022-07-29T00:16:23;100227.94;;;19.04;55.22
3664;BME280;1848;51.042;7.066;2022-07-29T00:18:50;100223.56;;;19.03;56.06
3664;BME280;1848;51.042;7.066;2022-07-29T00:21:16;100213.47;;;18.99;54.62
3664;BME280;1848;51.042;7.066;2022-07-29T00:23:43;100220.06;;;19.03;55.26
3664;BME280;1848;51.042;7.066;2022-07-29T00:26:09;100215.44;;;19.03;56.46
3664;BME280;1848;51.042;7.066;2022-07-29T00:28:36;100220.31;;;19.01;57.41
3664;BME280;1848;51.042;7.066;2022-07-29T00:31:02;100212.16;;;19.01;57.18
3664;BME280;1848;51.042;7.066;2022-07-29T00:33:29;100215.38;;;18.98;56.86
3664;BME280;1848;51.042;7.066;2022-07-29T00:35:55;100211.84;;;18.98;57.05
3664;BME280;1848;51.042;7.066;2022-07-29T00:38:22;100203.66;;;18.92;58.94
3664;BME280;1848;51.042;7.066;2022-07-29T00:40:49;100206.59;;;18.91;58.67
3664;BME280;1848;51.042;7.066;2022-07-29T00:43:16;100201.91;;;18.86;58.40
3664;BME280;1848;51.042;7.066;2022-07-29T00:45:43;100200.53;;;18.84;58.59
3664;BME280;1848;51.042;7.066;2022-07-29T00:48:10;100198.28;;;18.81;59.24
3664;BME280;1848;51.042;7.066;2022-07-29T00:50:37;100194.19;;;18.78;59.28
3664;BME280;1848;51.042;7.066;2022-07-29T00:53:05;100191.97;;;18.75;60.25
3664;BME280;1848;51.042;7.066;2022-07-29T00:55:32;100204.94;;;18.73;59.49
3664;BME280;1848;51.042;7.066;2022-07-29T00:57:59;100195.66;;;18.69;61.07
3664;BME280;1848;51.042;7.066;2022-07-29T01:00:27;100199.03;;;18.59;58.65
3664;BME280;1848;51.042;7.066;2022-07-29T01:02:54;100177.03;;;18.55;59.04
3664;BME280;1848;51.042;7.066;2022-07-29T01:05:22;100169.16;;;18.54;61.67
3664;BME280;1848;51.042;7.066;2022-07-29T01:07:52;100186.25;;;18.54;62.00
3664;BME280;1848;51.042;7.066;2022-07-29T01:10:20;100182.97;;;18.52;60.43
3664;BME280;1848;51.042;7.066;2022-07-29T01:12:49;100175.91;;;18.51;62.68
3664;BME280;1848;51.042;7.066;2022-07-29T01:15:16;100175.59;;;18.48;60.75
3664;BME280;1848;51.042;7.066;2022-07-29T01:17:47;100176.41;;;18.48;63.58
3664;BME280;1848;51.042;7.066;2022-07-29T01:26:21;100178.28;;;18.31;61.38
3664;BME280;1848;51.042;7.066;2022-07-29T01:31:48;100171.13;;;18.25;61.10
3664;BME280;1848;51.042;7.066;2022-07-29T01:34:30;100155.41;;;18.22;62.55
3664;BME280;1848;51.042;7.066;2022-07-29T01:37:06;100166.00;;;18.23;64.00
3664;BME280;1848;51.042;7.066;2022-07-29T01:39:36;100161.88;;;18.20;65.18
3664;BME280;1848;51.042;7.066;2022-07-29T01:42:20;100133.97;;;18.03;64.56
3664;BME280;1848;51.042;7.066;2022-07-29T01:44:56;100145.78;;;18.14;62.51
3664;BME280;1848;51.042;7.066;2022-07-29T01:47:29;100150.47;;;18.18;59.66
3664;BME280;1848;51.042;7.066;2022-07-29T01:50:04;100145.63;;;18.20;62.95
3664;BME280;1848;51.042;7.066;2022-07-29T01:52:43;100140.13;;;18.15;61.69
3664;BME280;1848;51.042;7.066;2022-07-29T01:55:15;100129.78;;;18.12;61.35
3664;BME280;1848;51.042;7.066;2022-07-29T01:57:45;100148.34;;;18.20;64.54
3664;BME280;1848;51.042;7.066;2022-07-29T02:00:12;100138.00;;;18.17;64.41
3664;BME280;1848;51.042;7.066;2022-07-29T02:02:42;100129.88;;;18.17;61.59
3664;BME280;1848;51.042;7.066;2022-07-29T02:05:12;100130.97;;;18.16;62.93
3664;BME280;1848;51.042;7.066;2022-07-29T02:07:42;100124.72;;;18.16;63.33
3664;BME280;1848;51.042;7.066;2022-07-29T02:10:10;100129.78;;;18.12;61.88
3664;BME280;1848;51.042;7.066;2022-07-29T02:12:39;100141.69;;;18.11;63.46
3664;BME280;1848;51.042;7.066;2022-07-29T02:15:14;100144.41;;;18.11;63.25
3664;BME280;1848;51.042;7.066;2022-07-29T02:17:51;100144.41;;;18.11;61.95
3664;BME280;1848;51.042;7.066;2022-07-29T02:20:19;100146.88;;;18.13;64.45
3664;BME280;1848;51.042;7.066;2022-07-29T02:22:46;100149.56;;;18.13;63.72
3664;BME280;1848;51.042;7.066;2022-07-29T02:25:15;100128.56;;;18.03;60.99
3664;BME280;1848;51.042;7.066;2022-07-29T02:27:43;100124.72;;;17.99;65.10
3664;BME280;1848;51.042;7.066;2022-07-29T02:30:11;100140.78;;;18.06;62.34
3664;BME280;1848;51.042;7.066;2022-07-29T02:32:40;100129.44;;;17.92;65.39
3664;BME280;1848;51.042;7.066;2022-07-29T02:35:08;100141.91;;;17.93;64.36
3664;BME280;1848;51.042;7.066;2022-07-29T02:37:36;100133.00;;;17.92;64.93
3664;BME280;1848;51.042;7.066;2022-07-29T02:40:03;100127.38;;;17.82;64.64
3664;BME280;1848;51.042;7.066;2022-07-29T02:42:33;100137.25;;;17.76;65.50
3664;BME280;1848;51.042;7.066;2022-07-29T02:45:04;100129.22;;;17.64;65.78
3664;BME280;1848;51.042;7.066;2022-07-29T02:47:35;100128.88;;;17.61;65.62
3664;BME280;1848;51.042;7.066;2022-07-29T02:50:31;100139.94;;;17.59;64.73
3664;BME280;1848;51.042;7.066;2022-07-29T02:53:02;100135.56;;;17.58;65.68
3664;BME280;1848;51.042;7.066;2022-07-29T02:55:34;100136.91;;;17.56;64.22
3664;BME280;1848;51.042;7.066;2022-07-29T03:00:42;100137.38;;;17.53;64.24
3664;BME280;1848;51.042;7.066;2022-07-29T03:03:16;100139.75;;;17.49;64.30
3664;BME280;1848;51.042;7.066;2022-07-29T03:05:43;100144.06;;;17.50;65.86
3664;BME280;1848;51.042;7.066;2022-07-29T03:08:11;100153.00;;;17.51;65.80
3664;BME280;1848;51.042;7.066;2022-07-29T03:10:40;100134.84;;;17.34;65.26
3664;BME280;1848;51.042;7.066;2022-07-29T03:13:09;100163.22;;;17.49;65.13
3664;BME280;1848;51.042;7.066;2022-07-29T03:15:36;100162.53;;;17.41;63.54
3664;BME280;1848;51.042;7.066;2022-07-29T03:18:03;100169.47;;;17.49;63.37
3664;BME280;1848;51.042;7.066;2022-07-29T03:20:31;100175.44;;;17.51;64.22
3664;BME280;1848;51.042;7.066;2022-07-29T03:22:57;100168.28;;;17.45;63.30
3664;BME280;1848;51.042;7.066;2022-07-29T03:25:24;100158.91;;;17.48;63.02
3664;BME280;1848;51.042;7.066;2022-07-29T03:27:51;100173.56;;;17.52;63.41
3664;BME280;1848;51.042;7.066;2022-07-29T03:30:17;100192.13;;;17.60;63.35
3664;BME280;1848;51.042;7.066;2022-07-29T03:32:48;100194.00;;;17.59;63.90
3664;BME280;1848;51.042;7.066;2022-07-29T03:35:18;100191.88;;;17.61;63.99
3664;BME280;1848;51.042;7.066;2022-07-29T03:37:45;100190.59;;;17.52;63.68
3664;BME280;1848;51.042;7.066;2022-07-29T03:40:18;100178.41;;;17.38;63.87
3664;BME280;1848;51.042;7.066;2022-07-29T03:42:46;100188.28;;;17.44;63.61
3664;BME280;1848;51.042;7.066;2022-07-29T03:45:17;100187.34;;;17.38;63.97
3664;BME280;1848;51.042;7.066;2022-07-29T03:47:48;100186.75;;;17.36;63.83
3664;BME280;1848;51.042;7.066;2022-07-29T03:50:20;100170.81;;;17.23;63.76
3664;BME280;1848;51.042;7.066;2022-07-29T03:52:48;100177.06;;;17.23;64.13
3664;BME280;1848;51.042;7.066;2022-07-29T03:55:15;100172.13;;;17.20;63.92
3664;BME280;1848;51.042;7.066;2022-07-29T03:57:42;100195.34;;;17.33;63.90
3664;BME280;1848;51.042;7.066;2022-07-29T04:00:10;100185.50;;;17.27;63.71
3664;BME280;1848;51.042;7.066;2022-07-29T04:02:38;100189.47;;;17.36;63.37
3664;BME280;1848;51.042;7.066;2022-07-29T04:05:05;100160.75;;;17.06;63.17
3664;BME280;1848;51.042;7.066;2022-07-29T04:07:31;100187.75;;;17.30;62.76
3664;BME280;1848;51.042;7.066;2022-07-29T04:09:57;100185.63;;;17.32;63.24
3664;BME280;1848;51.042;7.066;2022-07-29T04:12:24;100185.63;;;17.32;63.62
3664;BME280;1848;51.042;7.066;2022-07-29T04:14:50;100187.25;;;17.33;62.32
3664;BME280;1848;51.042;7.066;2022-07-29T04:17:17;100192.41;;;17.35;62.97
3664;BME280;1848;51.042;7.066;2022-07-29T04:19:43;100200.84;;;17.38;62.72
3664;BME280;1848;51.042;7.066;2022-07-29T04:22:10;100204.63;;;17.37;62.43
3664;BME280;1848;51.042;7.066;2022-07-29T04:24:36;100205.09;;;17.34;63.21
3664;BME280;1848;51.042;7.066;2022-07-29T04:27:03;100192.44;;;17.23;62.14
3664;BME280;1848;51.042;7.066;2022-07-29T04:29:29;100200.53;;;17.23;62.70
3664;BME280;1848;51.042;7.066;2022-07-29T04:31:55;100199.47;;;17.24;62.54
3664;BME280;1848;51.042;7.066;2022-07-29T04:34:22;100201.84;;;17.20;61.90
3664;BME280;1848;51.042;7.066;2022-07-29T04:36:53;100196.09;;;17.17;62.60
3664;BME280;1848;51.042;7.066;2022-07-29T04:39:19;100198.78;;;17.17;62.32
3664;BME280;1848;51.042;7.066;2022-07-29T04:41:49;100178.50;;;17.02;62.42
3664;BME280;1848;51.042;7.066;2022-07-29T04:44:17;100196.78;;;17.12;62.75
3664;BME280;1848;51.042;7.066;2022-07-29T04:46:45;100201.38;;;17.12;63.16
3664;BME280;1848;51.042;7.066;2022-07-29T04:49:11;100185.66;;;17.08;62.57
3664;BME280;1848;51.042;7.066;2022-07-29T04:51:38;100189.53;;;17.13;62.94
3664;BME280;1848;51.042;7.066;2022-07-29T04:54:04;100174.50;;;17.05;62.78
3664;BME280;1848;51.042;7.066;2022-07-29T04:56:31;100187.41;;;17.15;63.20
3664;BME280;1848;51.042;7.066;2022-07-29T04:58:57;100190.69;;;17.17;62.89
3664;BME280;1848;51.042;7.066;2022-07-29T05:01:24;100195.84;;;17.18;63.04
3664;BME280;1848;51.042;7.066;2022-07-29T05:03:50;100192.34;;;17.18;62.53
3664;BME280;1848;51.042;7.066;2022-07-29T05:06:22;100188.81;;;17.17;62.89
3664;BME280;1848;51.042;7.066;2022-07-29T05:08:48;100190.47;;;17.18;63.18
3664;BME280;1848;51.042;7.066;2022-07-29T05:11:15;100198.19;;;17.26;62.55
3664;BME280;1848;51.042;7.066;2022-07-29T05:13:47;100177.06;;;17.12;62.17
3664;BME280;1848;51.042;7.066;2022-07-29T05:16:14;100209.69;;;17.34;62.60
3664;BME280;1848;51.042;7.066;2022-07-29T05:18:41;100213.91;;;17.41;62.03
3664;BME280;1848;51.042;7.066;2022-07-29T05:21:08;100217.78;;;17.45;61.77
3664;BME280;1848;51.042;7.066;2022-07-29T05:23:34;100215.91;;;17.46;62.04
3664;BME280;1848;51.042;7.066;2022-07-29T05:26:01;100230.69;;;17.43;62.17
3664;BME280;1848;51.042;7.066;2022-07-29T05:28:27;100172.94;;;17.21;62.07
3664;BME280;1848;51.042;7.066;2022-07-29T05:30:54;100222.81;;;17.54;61.19
3664;BME280;1848;51.042;7.066;2022-07-29T05:33:20;100224.69;;;17.53;62.10
3664;BME280;1848;51.042;7.066;2022-07-29T05:36:03;100216.34;;;17.55;61.80
3664;BME280;1848;51.042;7.066;2022-07-29T05:38:31;100221.63;;;17.61;62.82
3664;BME280;1848;51.042;7.066;2022-07-29T05:40:58;100213.38;;;17.68;62.05
3664;BME280;1848;51.042;7.066;2022-07-29T05:43:28;100225.09;;;17.74;62.80
3664;BME280;1848;51.042;7.066;2022-07-29T05:45:55;100232.00;;;17.81;61.83
3664;BME280;1848;51.042;7.066;2022-07-29T05:48:22;100234.59;;;17.88;62.21
3664;BME280;1848;51.042;7.066;2022-07-29T05:50:49;100233.66;;;17.94;60.62
3664;BME280;1848;51.042;7.066;2022-07-29T05:53:16;100228.00;;;17.96;61.66
3664;BME280;1848;51.042;7.066;2022-07-29T05:55:46;100236.44;;;17.99;61.68
3664;BME280;1848;51.042;7.066;2022-07-29T05:58:13;100233.50;;;18.01;62.20
3664;BME280;1848;51.042;7.066;2022-07-29T06:00:39;100249.84;;;18.06;62.41
3664;BME280;1848;51.042;7.066;2022-07-29T06:03:06;100250.88;;;18.05;62.17
3664;BME280;1848;51.042;7.066;2022-07-29T06:05:32;100262.28;;;18.07;62.01
3664;BME280;1848;51.042;7.066;2022-07-29T06:07:59;100275.78;;;18.19;63.35
3664;BME280;1848;51.042;7.066;2022-07-29T06:10:25;100269.31;;;18.20;61.58
3664;BME280;1848;51.042;7.066;2022-07-29T06:12:52;100277.81;;;18.41;60.93
3664;BME280;1848;51.042;7.066;2022-07-29T06:15:19;100282.56;;;18.50;61.13
3664;BME280;1848;51.042;7.066;2022-07-29T06:17:45;100269.53;;;18.64;61.41
3664;BME280;1848;51.042;7.066;2022-07-29T06:20:26;100277.91;;;18.80;60.90
3664;BME280;1848;51.042;7.066;2022-07-29T06:22:56;100274.25;;;18.86;59.83
3664;BME280;1848;51.042;7.066;2022-07-29T06:25:22;100274.59;;;18.89;59.59
3664;BME280;1848;51.042;7.066;2022-07-29T06:27:49;100279.44;;;19.04;59.88
3664;BME280;1848;51.042;7.066;2022-07-29T06:30:15;100289.09;;;19.17;60.22
3664;BME280;1848;51.042;7.066;2022-07-29T06:32:42;100286.84;;;19.31;58.50
3664;BME280;1848;51.042;7.066;2022-07-29T06:35:08;100290.75;;;19.40;55.77
3664;BME280;1848;51.042;7.066;2022-07-29T06:37:55;100295.69;;;19.43;56.86
3664;BME280;1848;51.042;7.066;2022-07-29T06:40:25;100292.50;;;19.46;56.93
3664;BME280;1848;51.042;7.066;2022-07-29T06:43:09;100274.19;;;19.37;56.53
3664;BME280;1848;51.042;7.066;2022-07-29T06:45:36;100301.91;;;19.61;59.29
3664;BME280;1848;51.042;7.066;2022-07-29T06:48:04;100299.66;;;19.75;59.91
3664;BME280;1848;51.042;7.066;2022-07-29T06:50:31;100304.16;;;19.86;58.28
3664;BME280;1848;51.042;7.066;2022-07-29T06:52:57;100306.19;;;19.96;58.10
3664;BME280;1848;51.042;7.066;2022-07-29T06:55:24;100300.50;;;19.97;57.67
3664;BME280;1848;51.042;7.066;2022-07-29T06:57:50;100316.06;;;20.07;55.55
3664;BME280;1848;51.042;7.066;2022-07-29T07:00:17;100307.13;;;20.06;55.49
3664;BME280;1848;51.042;7.066;2022-07-29T07:02:44;100306.25;;;20.01;56.39
3664;BME280;1848;51.042;7.066;2022-07-29T07:05:12;100304.28;;;19.96;59.86
3664;BME280;1848;51.042;7.066;2022-07-29T07:07:39;100300.94;;;19.89;58.78
3664;BME280;1848;51.042;7.066;2022-07-29T07:10:05;100305.50;;;19.83;58.55
3664;BME280;1848;51.042;7.066;2022-07-29T07:12:32;100300.09;;;19.66;58.13
3664;BME280;1848;51.042;7.066;2022-07-29T07:14:58;100298.47;;;19.48;59.43
3664;BME280;1848;51.042;7.066;2022-07-29T07:17:25;100284.53;;;19.40;61.49
3664;BME280;1848;51.042;7.066;2022-07-29T07:19:51;100286.94;;;19.36;61.48
3664;BME280;1848;51.042;7.066;2022-07-29T07:22:17;100277.97;;;19.36;61.10
3664;BME280;1848;51.042;7.066;2022-07-29T07:24:44;100274.94;;;19.32;60.66
3664;BME280;1848;51.042;7.066;2022-07-29T07:27:10;100276.81;;;19.31;61.37
3664;BME280;1848;51.042;7.066;2022-07-29T07:29:37;100277.66;;;19.32;63.23
3664;BME280;1848;51.042;7.066;2022-07-29T07:32:09;100283.97;;;19.38;64.79
3664;BME280;1848;51.042;7.066;2022-07-29T07:34:36;100287.81;;;19.42;63.64
3664;BME280;1848;51.042;7.066;2022-07-29T07:37:04;100289.03;;;19.51;64.27
3664;BME280;1848;51.042;7.066;2022-07-29T07:39:31;100299.00;;;19.67;65.78
3664;BME280;1848;51.042;7.066;2022-07-29T07:41:57;100302.44;;;19.80;64.09
3664;BME280;1848;51.042;7.066;2022-07-29T07:44:24;100300.63;;;19.85;61.82
3664;BME280;1848;51.042;7.066;2022-07-29T07:46:50;100300.63;;;19.85;61.51
3664;BME280;1848;51.042;7.066;2022-07-29T07:49:17;100304.41;;;19.84;61.74
3664;BME280;1848;51.042;7.066;2022-07-29T07:51:43;100297.00;;;19.80;61.43
3664;BME280;1848;51.042;7.066;2022-07-29T07:54:16;100298.84;;;19.74;61.59
3664;BME280;1848;51.042;7.066;2022-07-29T07:56:46;100296.28;;;19.67;61.48
3664;BME280;1848;51.042;7.066;2022-07-29T07:59:18;100281.22;;;19.55;61.88
3664;BME280;1848;51.042;7.066;2022-07-29T08:01:44;100298.63;;;19.59;61.54
3664;BME280;1848;51.042;7.066;2022-07-29T08:04:22;100293.00;;;19.65;62.04
3664;BME280;1848;51.042;7.066;2022-07-29T08:06:54;100293.25;;;19.81;62.47
3664;BME280;1848;51.042;7.066;2022-07-29T08:09:21;100288.19;;;19.89;61.78
3664;BME280;1848;51.042;7.066;2022-07-29T08:11:55;100295.63;;;19.99;62.53
3664;BME280;1848;51.042;7.066;2022-07-29T08:14:22;100282.88;;;20.00;62.63
3664;BME280;1848;51.042;7.066;2022-07-29T08:16:48;100287.63;;;20.10;62.96
3664;BME280;1848;51.042;7.066;2022-07-29T08:19:15;100285.66;;;20.05;62.43
3664;BME280;1848;51.042;7.066;2022-07-29T08:21:41;100275.44;;;19.90;62.89
3664;BME280;1848;51.042;7.066;2022-07-29T08:24:08;100273.69;;;19.79;62.66
3664;BME280;1848;51.042;7.066;2022-07-29T08:26:54;100281.69;;;19.91;64.95
3664;BME280;1848;51.042;7.066;2022-07-29T08:29:20;100285.47;;;19.89;65.20
3664;BME280;1848;51.042;7.066;2022-07-29T08:31:46;100298.97;;;20.06;65.70
3664;BME280;1848;51.042;7.066;2022-07-29T08:34:13;100301.13;;;20.04;65.45
3664;BME280;1848;51.042;7.066;2022-07-29T08:36:39;100268.31;;;19.84;65.93
3664;BME280;1848;51.042;7.066;2022-07-29T08:39:06;100291.94;;;19.83;64.72
3664;BME280;1848;51.042;7.066;2022-07-29T08:41:32;100298.16;;;19.84;66.55
3664;BME280;1848;51.042;7.066;2022-07-29T08:43:59;100300.00;;;19.78;64.95
3664;BME280;1848;51.042;7.066;2022-07-29T08:46:25;100290.47;;;19.76;66.45
3664;BME280;1848;51.042;7.066;2022-07-29T08:48:52;100289.00;;;19.68;66.41
3664;BME280;1848;51.042;7.066;2022-07-29T08:51:20;100286.78;;;19.65;67.04
3664;BME280;1848;51.042;7.066;2022-07-29T08:53:48;100286.78;;;19.65;67.32
3664;BME280;1848;51.042;7.066;2022-07-29T08:56:16;100280.25;;;19.66;68.08
3664;BME280;1848;51.042;7.066;2022-07-29T08:58:46;100283.63;;;19.51;66.16
3664;BME280;1848;51.042;7.066;2022-07-29T09:01:22;100278.28;;;19.39;67.12
3664;BME280;1848;51.042;7.066;2022-07-29T09:04:03;100279.19;;;19.45;68.12
3664;BME280;1848;51.042;7.066;2022-07-29T09:06:32;100271.38;;;19.48;68.84
3664;BME280;1848;51.042;7.066;2022-07-29T09:09:00;100271.50;;;19.59;68.71
3664;BME280;1848;51.042;7.066;2022-07-29T09:11:27;100278.94;;;19.68;68.92
3664;BME280;1848;51.042;7.066;2022-07-29T09:13:54;100268.50;;;19.77;68.59
3664;BME280;1848;51.042;7.066;2022-07-29T09:16:21;100256.13;;;19.86;68.64
3664;BME280;1848;51.042;7.066;2022-07-29T09:19:20;100273.63;;;20.23;67.28
3664;BME280;1848;51.042;7.066;2022-07-29T09:21:47;100284.22;;;20.52;68.31
3664;BME280;1848;51.042;7.066;2022-07-29T09:27:01;100268.00;;;21.27;65.27
3664;BME280;1848;51.042;7.066;2022-07-29T09:29:28;100284.56;;;21.73;63.38
3664;BME280;1848;51.042;7.066;2022-07-29T09:32:05;100284.66;;;21.99;62.06
3664;BME280;1848;51.042;7.066;2022-07-29T09:34:32;100279.50;;;22.12;60.75
3664;BME280;1848;51.042;7.066;2022-07-29T09:36:59;100286.34;;;22.20;61.88
3664;BME280;1848;51.042;7.066;2022-07-29T09:39:36;100270.00;;;22.15;61.81
3664;BME280;1848;51.042;7.066;2022-07-29T09:42:05;100281.47;;;22.22;60.73
3664;BME280;1848;51.042;7.066;2022-07-29T09:44:48;100284.19;;;22.22;60.90
3664;BME280;1848;51.042;7.066;2022-07-29T09:47:17;100290.50;;;22.38;63.52
3664;BME280;1848;51.042;7.066;2022-07-29T09:49:57;100290.78;;;22.57;61.60
3664;BME280;1848;51.042;7.066;2022-07-29T09:52:26;100288.63;;;22.75;62.26
3664;BME280;1848;51.042;7.066;2022-07-29T09:54:53;100278.81;;;22.63;60.88
3664;BME280;1848;51.042;7.066;2022-07-29T09:57:28;100282.06;;;22.45;61.39
3664;BME280;1848;51.042;7.066;2022-07-29T10:00:03;100287.53;;;22.50;62.20
3664;BME280;1848;51.042;7.066;2022-07-29T10:02:34;100276.09;;;22.48;62.68
3664;BME280;1848;51.042;7.066;2022-07-29T10:05:04;100286.72;;;22.49;61.47
3664;BME280;1848;51.042;7.066;2022-07-29T10:10:10;100290.00;;;22.62;61.10
3664;BME280;1848;51.042;7.066;2022-07-29T10:13:04;100293.53;;;22.78;60.70
3664;BME280;1848;51.042;7.066;2022-07-29T10:15:38;100294.91;;;22.85;61.17
3664;BME280;1848;51.042;7.066;2022-07-29T10:18:07;100303.34;;;22.74;61.01
3664;BME280;1848;51.042;7.066;2022-07-29T10:20:35;100296.25;;;22.57;61.69
3664;BME280;1848;51.042;7.066;2022-07-29T10:23:02;100298.41;;;22.40;61.49
3664;BME280;1848;51.042;7.066;2022-07-29T10:25:28;100294.25;;;22.22;61.93
3664;BME280;1848;51.042;7.066;2022-07-29T10:27:55;100292.88;;;22.14;61.96
3664;BME280;1848;51.042;7.066;2022-07-29T10:30:23;100290.94;;;22.04;62.62
3664;BME280;1848;51.042;7.066;2022-07-29T10:38:41;100287.34;;;21.93;63.70
3664;BME280;1848;51.042;7.066;2022-07-29T10:44:20;100290.31;;;21.82;63.51
3664;BME280;1848;51.042;7.066;2022-07-29T10:47:07;100293.56;;;21.73;63.64
3664;BME280;1848;51.042;7.066;2022-07-29T10:49:35;100298.13;;;21.63;63.32
3664;BME280;1848;51.042;7.066;2022-07-29T10:52:08;100298.91;;;21.53;65.93
3664;BME280;1848;51.042;7.066;2022-07-29T10:54:39;100295.72;;;21.66;64.04
3664;BME280;1848;51.042;7.066;2022-07-29T10:57:15;100297.16;;;21.94;63.99
3664;BME280;1848;51.042;7.066;2022-07-29T10:59:44;100296.09;;;22.06;63.28
3664;BME280;1848;51.042;7.066;2022-07-29T11:05:16;100298.38;;;22.29;62.95
3664;BME280;1848;51.042;7.066;2022-07-29T11:10:47;100309.09;;;22.82;62.58
3664;BME280;1848;51.042;7.066;2022-07-29T11:16:11;100293.78;;;23.28;57.31
3664;BME280;1848;51.042;7.066;2022-07-29T11:21:41;100293.69;;;23.69;58.28
3664;BME280;1848;51.042;7.066;2022-07-29T11:24:29;100287.09;;;23.75;55.94
3664;BME280;1848;51.042;7.066;2022-07-29T11:27:08;100290.97;;;23.63;56.96
3664;BME280;1848;51.042;7.066;2022-07-29T11:29:39;100295.63;;;23.58;56.03
3664;BME280;1848;51.042;7.066;2022-07-29T11:32:10;100300.53;;;23.51;56.34
3664;BME280;1848;51.042;7.066;2022-07-29T11:34:41;100304.66;;;23.53;57.15
3664;BME280;1848;51.042;7.066;2022-07-29T11:39:36;100300.63;;;24.55;54.98
3664;BME280;1848;51.042;7.066;2022-07-29T11:45:23;100298.69;;;25.97;50.17
3664;BME280;1848;51.042;7.066;2022-07-29T11:48:15;100292.44;;;25.92;49.74
3664;BME280;1848;51.042;7.066;2022-07-29T11:50:58;100294.56;;;25.76;49.52
3664;BME280;1848;51.042;7.066;2022-07-29T11:53:25;100294.00;;;26.03;51.17
3664;BME280;1848;51.042;7.066;2022-07-29T11:55:54;100291.03;;;26.18;47.13
3664;BME280;1848;51.042;7.066;2022-07-29T11:58:24;100294.88;;;26.36;47.55
3664;BME280;1848;51.042;7.066;2022-07-29T12:00:51;100294.34;;;26.72;47.86
3664;BME280;1848;51.042;7.066;2022-07-29T12:03:28;100292.88;;;26.94;49.95
3664;BME280;1848;51.042;7.066;2022-07-29T12:05:58;100300.34;;;26.74;45.47
3664;BME280;1848;51.042;7.066;2022-07-29T12:08:25;100294.25;;;26.77;47.00
3664;BME280;1848;51.042;7.066;2022-07-29T12:10:53;100295.19;;;26.87;45.56
3664;BME280;1848;51.042;7.066;2022-07-29T12:13:20;100293.88;;;26.84;45.57
3664;BME280;1848;51.042;7.066;2022-07-29T12:15:57;100299.59;;;26.88;45.26
3664;BME280;1848;51.042;7.066;2022-07-29T12:18:25;100304.22;;;27.06;45.28
3664;BME280;1848;51.042;7.066;2022-07-29T12:21:00;100303.34;;;27.39;47.39
3664;BME280;1848;51.042;7.066;2022-07-29T12:23:33;100281.59;;;27.28;43.61
3664;BME280;1848;51.042;7.066;2022-07-29T12:26:04;100308.28;;;27.23;46.70
3664;BME280;1848;51.042;7.066;2022-07-29T12:28:39;100304.56;;;26.86;43.00
3664;BME280;1848;51.042;7.066;2022-07-29T12:31:13;100298.53;;;26.84;44.56
3664;BME280;1848;51.042;7.066;2022-07-29T12:33:40;100303.59;;;26.57;43.67
3664;BME280;1848;51.042;7.066;2022-07-29T12:36:07;100283.38;;;26.53;43.63
3664;BME280;1848;51.042;7.066;2022-07-29T12:38:42;100288.81;;;26.20;44.35
3664;BME280;1848;51.042;7.066;2022-07-29T12:41:10;100287.53;;;26.32;45.01
3664;BME280;1848;51.042;7.066;2022-07-29T12:43:36;100291.09;;;26.13;45.36
3664;BME280;1848;51.042;7.066;2022-07-29T12:46:14;100286.59;;;26.22;44.57
3664;BME280;1848;51.042;7.066;2022-07-29T12:48:42;100294.56;;;26.00;45.20
3664;BME280;1848;51.042;7.066;2022-07-29T12:51:10;100299.53;;;25.98;45.17
3664;BME280;1848;51.042;7.066;2022-07-29T12:53:38;100287.31;;;25.85;45.94
3664;BME280;1848;51.042;7.066;2022-07-29T12:56:05;100280.69;;;25.91;46.49
3664;BME280;1848;51.042;7.066;2022-07-29T12:58:52;100289.09;;;26.38;42.63
3664;BME280;1848;51.042;7.066;2022-07-29T13:01:20;100287.91;;;26.44;44.33
3664;BME280;1848;51.042;7.066;2022-07-29T13:06:43;100275.31;;;26.05;45.74
3664;BME280;1848;51.042;7.066;2022-07-29T13:11:43;100270.94;;;26.42;44.74
3664;BME280;1848;51.042;7.066;2022-07-29T13:17:08;100275.41;;;26.19;44.81
3664;BME280;1848;51.042;7.066;2022-07-29T13:20:04;100280.50;;;26.26;44.61
3664;BME280;1848;51.042;7.066;2022-07-29T13:22:24;100280.56;;;26.58;46.75
3664;BME280;1848;51.042;7.066;2022-07-29T13:24:56;100278.06;;;26.95;45.57
3664;BME280;1848;51.042;7.066;2022-07-29T13:27:25;100273.91;;;26.97;45.09
3664;BME280;1848;51.042;7.066;2022-07-29T13:29:53;100273.94;;;27.25;44.88
3664;BME280;1848;51.042;7.066;2022-07-29T13:32:23;100272.59;;;27.09;43.44
3664;BME280;1848;51.042;7.066;2022-07-29T13:34:55;100273.00;;;27.16;43.30
3664;BME280;1848;51.042;7.066;2022-07-29T13:37:22;100271.19;;;27.25;41.51
3664;BME280;1848;51.042;7.066;2022-07-29T13:39:48;100278.03;;;27.42;43.28
3664;BME280;1848;51.042;7.066;2022-07-29T13:42:18;100259.88;;;27.13;40.82
3664;BME280;1848;51.042;7.066;2022-07-29T13:44:45;100282.66;;;27.13;41.50
3664;BME280;1848;51.042;7.066;2022-07-29T13:47:11;100266.97;;;27.00;41.64
3664;BME280;1848;51.042;7.066;2022-07-29T13:49:37;100272.88;;;26.93;41.92
3664;BME280;1848;51.042;7.066;2022-07-29T13:52:04;100274.84;;;26.74;43.28
3664;BME280;1848;51.042;7.066;2022-07-29T13:54:33;100276.06;;;26.82;44.24
3664;BME280;1848;51.042;7.066;2022-07-29T13:57:08;100265.91;;;26.68;43.65
3664;BME280;1848;51.042;7.066;2022-07-29T13:59:34;100267.00;;;26.67;43.95
3664;BME280;1848;51.042;7.066;2022-07-29T14:02:00;100271.16;;;26.65;43.06
3664;BME280;1848;51.042;7.066;2022-07-29T14:04:27;100268.94;;;26.48;41.29
3664;BME280;1848;51.042;7.066;2022-07-29T14:06:54;100265.31;;;26.14;43.64
3664;BME280;1848;51.042;7.066;2022-07-29T14:09:21;100255.25;;;26.10;42.20
3664;BME280;1848;51.042;7.066;2022-07-29T14:11:47;100269.41;;;25.74;43.24
3664;BME280;1848;51.042;7.066;2022-07-29T14:14:15;100264.44;;;25.76;43.14